sensor_id;sensor_type;location;lat;lon;timestamp;P1;durP1;ratioP1;P2;durP2;ratioP2
18822;SDS011;9540;51.550;7.980;2023-07-24T00:00:14;3.15;;;2.85;;
18822;SDS011;9540;51.550;7.980;2023-07-24T00:02:41;4.40;;;3.00;;
18822;SDS011;9540;51.550;7.980;2023-07-24T00:05:10;3.03;;;2.70;;
18822;SDS011;9540;51.550;7.980;2023-07-24T00:07:37;2.63;;;2.42;;
18822;SDS011;9540;51.550;7.980;2023-07-24T00:10:04;3.35;;;3.05;;
18822;SDS011;9540;51.550;7.980;2023-07-24T00:12:31;4.25;;;3.20;;
18822;SDS011;9540;51.550;7.980;2023-07-24T00:14:59;3.20;;;2.78;;
18822;SDS011;9540;51.550;7.980;2023-07-24T00:17:26;5.53;;;3.00;;
18822;SDS011;9540;51.550;7.980;2023-07-24T00:19:53;3.83;;;3.08;;
18822;SDS011;9540;51.550;7.980;2023-07-24T00:22:21;3.15;;;2.60;;
18822;SDS011;9540;51.550;7.980;2023-07-24T00:24:48;3.30;;;3.00;;
18822;SDS011;9540;51.550;7.980;2023-07-24T00:27:15;2.67;;;2.33;;
18822;SDS011;9540;51.550;7.980;2023-07-24T00:29:42;3.20;;;2.90;;
18822;SDS011;9540;51.550;7.980;2023-07-24T00:32:09;5.07;;;3.05;;
18822;SDS011;9540;51.550;7.980;2023-07-24T00:34:36;2.90;;;2.60;;
18822;SDS011;9540;51.550;7.980;2023-07-24T00:37:03;3.70;;;2.80;;
18822;SDS011;9540;51.550;7.980;2023-07-24T00:39:32;3.75;;;2.47;;
18822;SDS011;9540;51.550;7.980;2023-07-24T00:41:59;3.25;;;2.80;;
18822;SDS011;9540;51.550;7.980;2023-07-24T00:44:26;3.63;;;3.15;;
18822;SDS011;9540;51.550;7.980;2023-07-24T00:46:53;3.63;;;2.88;;
18822;SDS011;9540;51.550;7.980;2023-07-24T00:49:20;5.53;;;2.80;;
18822;SDS011;9540;51.550;7.980;2023-07-24T00:51:47;3.65;;;3.05;;
18822;SDS011;9540;51.550;7.980;2023-07-24T00:54:14;4.65;;;3.08;;
18822;SDS011;9540;51.550;7.980;2023-07-24T00:56:45;3.03;;;2.47;;
18822;SDS011;9540;51.550;7.980;2023-07-24T00:59:12;4.93;;;2.75;;
18822;SDS011;9540;51.550;7.980;2023-07-24T01:01:39;7.13;;;2.67;;
18822;SDS011;9540;51.550;7.980;2023-07-24T01:04:07;6.85;;;2.67;;
18822;SDS011;9540;51.550;7.980;2023-07-24T01:06:35;2.83;;;2.35;;
18822;SDS011;9540;51.550;7.980;2023-07-24T01:09:02;4.63;;;2.75;;
18822;SDS011;9540;51.550;7.980;2023-07-24T01:11:29;6.13;;;2.45;;
18822;SDS011;9540;51.550;7.980;2023-07-24T01:14:04;4.80;;;2.63;;
18822;SDS011;9540;51.550;7.980;2023-07-24T01:16:36;4.63;;;3.10;;
18822;SDS011;9540;51.550;7.980;2023-07-24T01:19:09;3.20;;;2.60;;
18822;SDS011;9540;51.550;7.980;2023-07-24T01:21:43;3.75;;;2.97;;
18822;SDS011;9540;51.550;7.980;2023-07-24T01:24:21;3.45;;;2.60;;
18822;SDS011;9540;51.550;7.980;2023-07-24T01:26:57;2.83;;;2.42;;
18822;SDS011;9540;51.550;7.980;2023-07-24T01:29:24;4.15;;;2.45;;
18822;SDS011;9540;51.550;7.980;2023-07-24T01:31:51;3.03;;;2.53;;
18822;SDS011;9540;51.550;7.980;2023-07-24T01:34:18;5.05;;;2.40;;
18822;SDS011;9540;51.550;7.980;2023-07-24T01:36:45;2.17;;;1.98;;
18822;SDS011;9540;51.550;7.980;2023-07-24T01:39:13;2.80;;;2.53;;
18822;SDS011;9540;51.550;7.980;2023-07-24T01:41:41;3.38;;;2.50;;
18822;SDS011;9540;51.550;7.980;2023-07-24T01:44:10;5.03;;;2.65;;
18822;SDS011;9540;51.550;7.980;2023-07-24T01:46:37;5.43;;;2.17;;
18822;SDS011;9540;51.550;7.980;2023-07-24T01:49:04;1.88;;;1.77;;
18822;SDS011;9540;51.550;7.980;2023-07-24T01:51:31;2.72;;;2.35;;
18822;SDS011;9540;51.550;7.980;2023-07-24T01:53:58;3.45;;;2.28;;
18822;SDS011;9540;51.550;7.980;2023-07-24T01:56:25;2.42;;;2.17;;
18822;SDS011;9540;51.550;7.980;2023-07-24T01:58:51;2.25;;;2.05;;
18822;SDS011;9540;51.550;7.980;2023-07-24T02:01:20;5.95;;;2.50;;
18822;SDS011;9540;51.550;7.980;2023-07-24T02:03:47;2.83;;;2.45;;
18822;SDS011;9540;51.550;7.980;2023-07-24T02:06:14;3.40;;;2.10;;
18822;SDS011;9540;51.550;7.980;2023-07-24T02:08:41;2.60;;;2.30;;
18822;SDS011;9540;51.550;7.980;2023-07-24T02:11:13;3.15;;;2.05;;
18822;SDS011;9540;51.550;7.980;2023-07-24T02:13:40;3.88;;;2.28;;
18822;SDS011;9540;51.550;7.980;2023-07-24T02:16:09;4.22;;;2.65;;
18822;SDS011;9540;51.550;7.980;2023-07-24T02:18:37;2.65;;;2.45;;
18822;SDS011;9540;51.550;7.980;2023-07-24T02:21:05;4.32;;;2.15;;
18822;SDS011;9540;51.550;7.980;2023-07-24T02:23:32;2.75;;;2.10;;
18822;SDS011;9540;51.550;7.980;2023-07-24T02:25:59;6.13;;;2.50;;
18822;SDS011;9540;51.550;7.980;2023-07-24T02:28:26;3.10;;;2.63;;
18822;SDS011;9540;51.550;7.980;2023-07-24T02:30:53;5.35;;;2.70;;
18822;SDS011;9540;51.550;7.980;2023-07-24T02:33:21;6.20;;;3.00;;
18822;SDS011;9540;51.550;7.980;2023-07-24T02:35:52;4.82;;;2.75;;
18822;SDS011;9540;51.550;7.980;2023-07-24T02:38:19;4.38;;;2.47;;
18822;SDS011;9540;51.550;7.980;2023-07-24T02:40:46;3.65;;;2.17;;
18822;SDS011;9540;51.550;7.980;2023-07-24T02:43:13;5.00;;;2.97;;
18822;SDS011;9540;51.550;7.980;2023-07-24T02:45:40;5.65;;;3.10;;
18822;SDS011;9540;51.550;7.980;2023-07-24T02:48:07;4.68;;;2.97;;
18822;SDS011;9540;51.550;7.980;2023-07-24T02:50:35;5.72;;;2.58;;
18822;SDS011;9540;51.550;7.980;2023-07-24T02:53:03;3.33;;;2.83;;
18822;SDS011;9540;51.550;7.980;2023-07-24T02:55:30;4.90;;;3.33;;
18822;SDS011;9540;51.550;7.980;2023-07-24T02:57:58;5.20;;;3.05;;
18822;SDS011;9540;51.550;7.980;2023-07-24T03:00:24;4.30;;;2.83;;
18822;SDS011;9540;51.550;7.980;2023-07-24T03:02:52;5.85;;;3.38;;
18822;SDS011;9540;51.550;7.980;2023-07-24T03:05:19;4.15;;;3.30;;
18822;SDS011;9540;51.550;7.980;2023-07-24T03:07:46;4.05;;;3.08;;
18822;SDS011;9540;51.550;7.980;2023-07-24T03:10:14;3.95;;;3.33;;
18822;SDS011;9540;51.550;7.980;2023-07-24T03:12:41;5.03;;;3.53;;
18822;SDS011;9540;51.550;7.980;2023-07-24T03:15:08;5.45;;;3.42;;
18822;SDS011;9540;51.550;7.980;2023-07-24T03:17:36;4.22;;;3.15;;
18822;SDS011;9540;51.550;7.980;2023-07-24T03:20:09;5.82;;;3.13;;
18822;SDS011;9540;51.550;7.980;2023-07-24T03:22:40;5.05;;;3.30;;
18822;SDS011;9540;51.550;7.980;2023-07-24T03:25:07;4.88;;;3.30;;
18822;SDS011;9540;51.550;7.980;2023-07-24T03:27:36;6.07;;;3.60;;
18822;SDS011;9540;51.550;7.980;2023-07-24T03:30:03;5.60;;;3.10;;
18822;SDS011;9540;51.550;7.980;2023-07-24T03:32:31;4.85;;;3.33;;
18822;SDS011;9540;51.550;7.980;2023-07-24T03:34:58;7.20;;;3.38;;
18822;SDS011;9540;51.550;7.980;2023-07-24T03:37:25;9.15;;;3.83;;
18822;SDS011;9540;51.550;7.980;2023-07-24T03:39:52;4.50;;;3.90;;
18822;SDS011;9540;51.550;7.980;2023-07-24T03:42:25;8.35;;;3.63;;
18822;SDS011;9540;51.550;7.980;2023-07-24T03:44:55;5.80;;;3.72;;
18822;SDS011;9540;51.550;7.980;2023-07-24T03:47:23;7.32;;;3.80;;
18822;SDS011;9540;51.550;7.980;2023-07-24T03:49:50;5.40;;;3.60;;
18822;SDS011;9540;51.550;7.980;2023-07-24T03:52:17;6.03;;;3.88;;
18822;SDS011;9540;51.550;7.980;2023-07-24T03:54:44;6.55;;;3.97;;
18822;SDS011;9540;51.550;7.980;2023-07-24T03:57:11;6.78;;;4.10;;
18822;SDS011;9540;51.550;7.980;2023-07-24T03:59:38;9.43;;;3.80;;
18822;SDS011;9540;51.550;7.980;2023-07-24T04:02:06;5.28;;;3.40;;
18822;SDS011;9540;51.550;7.980;2023-07-24T04:04:34;4.25;;;3.70;;
18822;SDS011;9540;51.550;7.980;2023-07-24T04:07:00;10.07;;;3.88;;
18822;SDS011;9540;51.550;7.980;2023-07-24T04:09:27;5.03;;;3.63;;
18822;SDS011;9540;51.550;7.980;2023-07-24T04:11:54;5.65;;;3.90;;
18822;SDS011;9540;51.550;7.980;2023-07-24T04:14:21;6.13;;;3.70;;
18822;SDS011;9540;51.550;7.980;2023-07-24T04:16:48;4.10;;;3.70;;
18822;SDS011;9540;51.550;7.980;2023-07-24T04:19:17;6.30;;;3.75;;
18822;SDS011;9540;51.550;7.980;2023-07-24T04:21:44;5.57;;;3.33;;
18822;SDS011;9540;51.550;7.980;2023-07-24T04:24:10;4.88;;;3.40;;
18822;SDS011;9540;51.550;7.980;2023-07-24T04:26:36;5.80;;;3.80;;
18822;SDS011;9540;51.550;7.980;2023-07-24T04:29:04;4.88;;;3.33;;
18822;SDS011;9540;51.550;7.980;2023-07-24T04:31:32;5.22;;;3.25;;
18822;SDS011;9540;51.550;7.980;2023-07-24T04:33:59;8.85;;;3.72;;
18822;SDS011;9540;51.550;7.980;2023-07-24T04:36:27;4.03;;;3.63;;
18822;SDS011;9540;51.550;7.980;2023-07-24T04:38:54;8.23;;;3.75;;
18822;SDS011;9540;51.550;7.980;2023-07-24T04:41:21;4.97;;;3.38;;
18822;SDS011;9540;51.550;7.980;2023-07-24T04:43:48;5.15;;;3.50;;
18822;SDS011;9540;51.550;7.980;2023-07-24T04:46:15;5.95;;;3.50;;
18822;SDS011;9540;51.550;7.980;2023-07-24T04:48:42;3.85;;;3.33;;
18822;SDS011;9540;51.550;7.980;2023-07-24T04:51:09;8.27;;;3.90;;
18822;SDS011;9540;51.550;7.980;2023-07-24T04:53:37;8.02;;;3.97;;
18822;SDS011;9540;51.550;7.980;2023-07-24T04:56:04;8.20;;;4.18;;
18822;SDS011;9540;51.550;7.980;2023-07-24T04:58:32;6.25;;;3.67;;
18822;SDS011;9540;51.550;7.980;2023-07-24T05:01:01;4.20;;;3.38;;
18822;SDS011;9540;51.550;7.980;2023-07-24T05:03:30;4.38;;;3.63;;
18822;SDS011;9540;51.550;7.980;2023-07-24T05:05:57;6.68;;;3.35;;
18822;SDS011;9540;51.550;7.980;2023-07-24T05:08:24;4.90;;;3.47;;
18822;SDS011;9540;51.550;7.980;2023-07-24T05:10:55;8.02;;;4.35;;
18822;SDS011;9540;51.550;7.980;2023-07-24T05:13:23;8.45;;;3.72;;
18822;SDS011;9540;51.550;7.980;2023-07-24T05:15:50;7.50;;;3.53;;
18822;SDS011;9540;51.550;7.980;2023-07-24T05:18:17;9.18;;;3.70;;
18822;SDS011;9540;51.550;7.980;2023-07-24T05:20:44;5.85;;;3.60;;
18822;SDS011;9540;51.550;7.980;2023-07-24T05:23:12;5.10;;;3.55;;
18822;SDS011;9540;51.550;7.980;2023-07-24T05:25:40;4.93;;;3.20;;
18822;SDS011;9540;51.550;7.980;2023-07-24T05:28:09;5.28;;;3.67;;
18822;SDS011;9540;51.550;7.980;2023-07-24T05:30:36;8.93;;;3.78;;
18822;SDS011;9540;51.550;7.980;2023-07-24T05:33:03;5.75;;;3.85;;
18822;SDS011;9540;51.550;7.980;2023-07-24T05:35:29;4.30;;;3.90;;
18822;SDS011;9540;51.550;7.980;2023-07-24T05:37:55;4.97;;;3.60;;
18822;SDS011;9540;51.550;7.980;2023-07-24T05:40:22;4.53;;;3.70;;
18822;SDS011;9540;51.550;7.980;2023-07-24T05:42:49;4.53;;;3.40;;
18822;SDS011;9540;51.550;7.980;2023-07-24T05:45:18;4.97;;;3.50;;
18822;SDS011;9540;51.550;7.980;2023-07-24T05:47:45;7.88;;;3.72;;
18822;SDS011;9540;51.550;7.980;2023-07-24T05:50:12;4.60;;;3.72;;
18822;SDS011;9540;51.550;7.980;2023-07-24T05:52:39;8.18;;;4.00;;
18822;SDS011;9540;51.550;7.980;2023-07-24T05:55:07;5.70;;;3.65;;
18822;SDS011;9540;51.550;7.980;2023-07-24T05:57:34;8.73;;;3.53;;
18822;SDS011;9540;51.550;7.980;2023-07-24T06:00:03;6.68;;;3.28;;
18822;SDS011;9540;51.550;7.980;2023-07-24T06:02:32;5.43;;;3.45;;
18822;SDS011;9540;51.550;7.980;2023-07-24T06:04:59;6.05;;;3.70;;
18822;SDS011;9540;51.550;7.980;2023-07-24T06:07:26;7.80;;;3.85;;
18822;SDS011;9540;51.550;7.980;2023-07-24T06:09:53;6.90;;;3.83;;
18822;SDS011;9540;51.550;7.980;2023-07-24T06:12:20;5.32;;;4.15;;
18822;SDS011;9540;51.550;7.980;2023-07-24T06:14:47;11.63;;;5.18;;
18822;SDS011;9540;51.550;7.980;2023-07-24T06:17:14;7.72;;;5.00;;
18822;SDS011;9540;51.550;7.980;2023-07-24T06:19:42;9.07;;;5.07;;
18822;SDS011;9540;51.550;7.980;2023-07-24T06:22:09;8.95;;;5.47;;
18822;SDS011;9540;51.550;7.980;2023-07-24T06:24:36;10.18;;;5.32;;
18822;SDS011;9540;51.550;7.980;2023-07-24T06:27:04;10.80;;;5.68;;
18822;SDS011;9540;51.550;7.980;2023-07-24T06:29:32;7.93;;;4.55;;
18822;SDS011;9540;51.550;7.980;2023-07-24T06:31:59;8.63;;;5.53;;
18822;SDS011;9540;51.550;7.980;2023-07-24T06:34:26;9.98;;;5.43;;
18822;SDS011;9540;51.550;7.980;2023-07-24T06:36:54;7.85;;;4.93;;
18822;SDS011;9540;51.550;7.980;2023-07-24T06:39:21;6.05;;;4.05;;
18822;SDS011;9540;51.550;7.980;2023-07-24T06:41:49;8.98;;;4.85;;
18822;SDS011;9540;51.550;7.980;2023-07-24T06:44:17;8.13;;;4.32;;
18822;SDS011;9540;51.550;7.980;2023-07-24T06:46:45;5.20;;;3.88;;
18822;SDS011;9540;51.550;7.980;2023-07-24T06:49:11;6.50;;;4.03;;
18822;SDS011;9540;51.550;7.980;2023-07-24T06:51:38;6.55;;;3.80;;
18822;SDS011;9540;51.550;7.980;2023-07-24T06:54:07;5.28;;;3.65;;
18822;SDS011;9540;51.550;7.980;2023-07-24T06:56:43;7.45;;;4.00;;
18822;SDS011;9540;51.550;7.980;2023-07-24T06:59:17;8.73;;;4.50;;
18822;SDS011;9540;51.550;7.980;2023-07-24T07:01:49;6.30;;;4.03;;
18822;SDS011;9540;51.550;7.980;2023-07-24T07:04:30;7.38;;;4.93;;
18822;SDS011;9540;51.550;7.980;2023-07-24T07:07:03;6.82;;;5.43;;
18822;SDS011;9540;51.550;7.980;2023-07-24T07:09:37;6.50;;;4.78;;
18822;SDS011;9540;51.550;7.980;2023-07-24T07:12:07;13.45;;;5.68;;
18822;SDS011;9540;51.550;7.980;2023-07-24T07:14:35;10.23;;;5.38;;
18822;SDS011;9540;51.550;7.980;2023-07-24T07:17:03;11.82;;;6.18;;
18822;SDS011;9540;51.550;7.980;2023-07-24T07:19:36;10.05;;;5.78;;
18822;SDS011;9540;51.550;7.980;2023-07-24T07:22:04;7.60;;;5.35;;
18822;SDS011;9540;51.550;7.980;2023-07-24T07:24:35;10.35;;;5.10;;
18822;SDS011;9540;51.550;7.980;2023-07-24T07:27:12;6.80;;;4.75;;
18822;SDS011;9540;51.550;7.980;2023-07-24T07:29:42;7.22;;;5.80;;
18822;SDS011;9540;51.550;7.980;2023-07-24T07:32:12;6.65;;;5.85;;
18822;SDS011;9540;51.550;7.980;2023-07-24T07:34:44;6.43;;;5.15;;
18822;SDS011;9540;51.550;7.980;2023-07-24T07:37:14;7.72;;;5.90;;
18822;SDS011;9540;51.550;7.980;2023-07-24T07:39:47;9.40;;;5.65;;
18822;SDS011;9540;51.550;7.980;2023-07-24T07:42:18;10.30;;;5.95;;
18822;SDS011;9540;51.550;7.980;2023-07-24T07:44:45;8.20;;;5.55;;
18822;SDS011;9540;51.550;7.980;2023-07-24T07:47:13;8.15;;;5.13;;
18822;SDS011;9540;51.550;7.980;2023-07-24T07:49:46;6.22;;;4.93;;
18822;SDS011;9540;51.550;7.980;2023-07-24T07:52:17;7.60;;;4.90;;
18822;SDS011;9540;51.550;7.980;2023-07-24T07:54:48;5.85;;;4.75;;
18822;SDS011;9540;51.550;7.980;2023-07-24T07:57:16;13.27;;;4.78;;
18822;SDS011;9540;51.550;7.980;2023-07-24T07:59:50;6.15;;;4.57;;
18822;SDS011;9540;51.550;7.980;2023-07-24T08:02:18;8.27;;;4.93;;
18822;SDS011;9540;51.550;7.980;2023-07-24T08:04:47;6.13;;;5.28;;
18822;SDS011;9540;51.550;7.980;2023-07-24T08:07:18;4.47;;;4.07;;
18822;SDS011;9540;51.550;7.980;2023-07-24T08:09:46;5.28;;;4.65;;
18822;SDS011;9540;51.550;7.980;2023-07-24T08:12:21;8.95;;;4.68;;
18822;SDS011;9540;51.550;7.980;2023-07-24T08:14:55;5.07;;;4.55;;
18822;SDS011;9540;51.550;7.980;2023-07-24T08:17:27;8.95;;;4.93;;
18822;SDS011;9540;51.550;7.980;2023-07-24T08:19:57;6.03;;;4.13;;
18822;SDS011;9540;51.550;7.980;2023-07-24T08:22:29;5.53;;;4.30;;
18822;SDS011;9540;51.550;7.980;2023-07-24T08:25:06;7.05;;;4.97;;
18822;SDS011;9540;51.550;7.980;2023-07-24T08:27:46;6.57;;;4.57;;
18822;SDS011;9540;51.550;7.980;2023-07-24T08:30:17;5.63;;;4.10;;
18822;SDS011;9540;51.550;7.980;2023-07-24T08:32:47;9.48;;;4.75;;
18822;SDS011;9540;51.550;7.980;2023-07-24T08:35:16;5.60;;;4.05;;
18822;SDS011;9540;51.550;7.980;2023-07-24T08:37:51;5.50;;;4.45;;
18822;SDS011;9540;51.550;7.980;2023-07-24T08:40:24;4.97;;;4.40;;
18822;SDS011;9540;51.550;7.980;2023-07-24T08:42:51;7.07;;;4.90;;
18822;SDS011;9540;51.550;7.980;2023-07-24T08:45:18;5.93;;;4.47;;
18822;SDS011;9540;51.550;7.980;2023-07-24T08:47:47;5.90;;;4.35;;
18822;SDS011;9540;51.550;7.980;2023-07-24T08:50:14;5.28;;;4.13;;
18822;SDS011;9540;51.550;7.980;2023-07-24T08:52:42;5.88;;;4.25;;
18822;SDS011;9540;51.550;7.980;2023-07-24T08:55:11;5.00;;;4.32;;
18822;SDS011;9540;51.550;7.980;2023-07-24T08:57:40;4.32;;;3.67;;
18822;SDS011;9540;51.550;7.980;2023-07-24T09:00:07;6.25;;;3.88;;
18822;SDS011;9540;51.550;7.980;2023-07-24T09:02:35;4.40;;;4.00;;
18822;SDS011;9540;51.550;7.980;2023-07-24T09:05:02;6.20;;;4.13;;
18822;SDS011;9540;51.550;7.980;2023-07-24T09:07:29;6.10;;;3.70;;
18822;SDS011;9540;51.550;7.980;2023-07-24T09:09:57;4.63;;;3.38;;
18822;SDS011;9540;51.550;7.980;2023-07-24T09:12:24;7.10;;;4.30;;
18822;SDS011;9540;51.550;7.980;2023-07-24T09:15:01;9.40;;;4.20;;
18822;SDS011;9540;51.550;7.980;2023-07-24T09:17:29;4.97;;;4.15;;
18822;SDS011;9540;51.550;7.980;2023-07-24T09:19:56;4.65;;;3.67;;
18822;SDS011;9540;51.550;7.980;2023-07-24T09:22:23;5.50;;;3.90;;
18822;SDS011;9540;51.550;7.980;2023-07-24T09:24:53;4.13;;;3.72;;
18822;SDS011;9540;51.550;7.980;2023-07-24T09:27:23;4.15;;;3.75;;
18822;SDS011;9540;51.550;7.980;2023-07-24T09:29:51;5.97;;;4.10;;
18822;SDS011;9540;51.550;7.980;2023-07-24T09:32:20;4.40;;;4.00;;
18822;SDS011;9540;51.550;7.980;2023-07-24T09:34:48;4.38;;;3.45;;
18822;SDS011;9540;51.550;7.980;2023-07-24T09:37:23;4.70;;;4.20;;
18822;SDS011;9540;51.550;7.980;2023-07-24T09:39:51;6.10;;;3.45;;
18822;SDS011;9540;51.550;7.980;2023-07-24T09:42:26;3.88;;;3.10;;
18822;SDS011;9540;51.550;7.980;2023-07-24T09:44:54;4.93;;;3.70;;
18822;SDS011;9540;51.550;7.980;2023-07-24T09:47:22;5.20;;;3.92;;
18822;SDS011;9540;51.550;7.980;2023-07-24T09:49:50;5.07;;;4.20;;
18822;SDS011;9540;51.550;7.980;2023-07-24T09:52:18;4.35;;;3.80;;
18822;SDS011;9540;51.550;7.980;2023-07-24T09:54:49;3.55;;;3.25;;
18822;SDS011;9540;51.550;7.980;2023-07-24T09:57:25;3.90;;;3.40;;
18822;SDS011;9540;51.550;7.980;2023-07-24T09:59:54;4.57;;;3.25;;
18822;SDS011;9540;51.550;7.980;2023-07-24T10:02:24;4.18;;;3.67;;
18822;SDS011;9540;51.550;7.980;2023-07-24T10:04:52;5.07;;;2.88;;
18822;SDS011;9540;51.550;7.980;2023-07-24T10:07:20;5.60;;;3.70;;
18822;SDS011;9540;51.550;7.980;2023-07-24T10:09:49;4.32;;;3.50;;
18822;SDS011;9540;51.550;7.980;2023-07-24T10:12:16;4.38;;;3.17;;
18822;SDS011;9540;51.550;7.980;2023-07-24T10:14:44;4.20;;;3.80;;
18822;SDS011;9540;51.550;7.980;2023-07-24T10:17:12;4.03;;;3.50;;
18822;SDS011;9540;51.550;7.980;2023-07-24T10:19:41;4.15;;;3.00;;
18822;SDS011;9540;51.550;7.980;2023-07-24T10:22:09;4.60;;;3.83;;
18822;SDS011;9540;51.550;7.980;2023-07-24T10:24:42;4.35;;;3.65;;
18822;SDS011;9540;51.550;7.980;2023-07-24T10:27:10;4.50;;;3.30;;
18822;SDS011;9540;51.550;7.980;2023-07-24T10:29:37;4.90;;;3.85;;
18822;SDS011;9540;51.550;7.980;2023-07-24T10:32:15;5.22;;;3.80;;
18822;SDS011;9540;51.550;7.980;2023-07-24T10:34:44;5.53;;;4.30;;
18822;SDS011;9540;51.550;7.980;2023-07-24T10:37:11;7.57;;;3.70;;
18822;SDS011;9540;51.550;7.980;2023-07-24T10:39:39;5.32;;;3.95;;
18822;SDS011;9540;51.550;7.980;2023-07-24T10:42:07;4.82;;;3.95;;
18822;SDS011;9540;51.550;7.980;2023-07-24T10:44:35;3.80;;;3.50;;
18822;SDS011;9540;51.550;7.980;2023-07-24T10:47:03;4.65;;;4.22;;
18822;SDS011;9540;51.550;7.980;2023-07-24T10:49:32;5.47;;;3.92;;
18822;SDS011;9540;51.550;7.980;2023-07-24T10:52:01;4.07;;;3.67;;
18822;SDS011;9540;51.550;7.980;2023-07-24T10:54:28;3.97;;;3.58;;
18822;SDS011;9540;51.550;7.980;2023-07-24T10:56:58;4.20;;;3.38;;
18822;SDS011;9540;51.550;7.980;2023-07-24T10:59:35;4.35;;;3.95;;
18822;SDS011;9540;51.550;7.980;2023-07-24T11:02:03;5.93;;;3.97;;
18822;SDS011;9540;51.550;7.980;2023-07-24T11:04:32;4.47;;;3.58;;
18822;SDS011;9540;51.550;7.980;2023-07-24T11:07:01;3.90;;;3.22;;
18822;SDS011;9540;51.550;7.980;2023-07-24T11:09:35;4.15;;;3.10;;
18822;SDS011;9540;51.550;7.980;2023-07-24T11:12:09;3.08;;;2.80;;
18822;SDS011;9540;51.550;7.980;2023-07-24T11:14:48;3.13;;;2.83;;
18822;SDS011;9540;51.550;7.980;2023-07-24T11:17:16;3.08;;;2.80;;
18822;SDS011;9540;51.550;7.980;2023-07-24T11:19:43;3.38;;;3.08;;
18822;SDS011;9540;51.550;7.980;2023-07-24T11:22:12;4.50;;;2.88;;
18822;SDS011;9540;51.550;7.980;2023-07-24T11:24:45;3.05;;;2.78;;
18822;SDS011;9540;51.550;7.980;2023-07-24T11:27:14;4.28;;;2.45;;
18822;SDS011;9540;51.550;7.980;2023-07-24T11:29:41;4.10;;;3.13;;
18822;SDS011;9540;51.550;7.980;2023-07-24T11:32:13;3.80;;;2.90;;
18822;SDS011;9540;51.550;7.980;2023-07-24T11:34:44;3.72;;;3.20;;
18822;SDS011;9540;51.550;7.980;2023-07-24T11:37:12;2.60;;;2.40;;
18822;SDS011;9540;51.550;7.980;2023-07-24T11:39:40;3.38;;;2.67;;
18822;SDS011;9540;51.550;7.980;2023-07-24T11:42:07;3.80;;;3.17;;
18822;SDS011;9540;51.550;7.980;2023-07-24T11:44:34;3.47;;;3.05;;
18822;SDS011;9540;51.550;7.980;2023-07-24T11:47:02;3.53;;;2.95;;
18822;SDS011;9540;51.550;7.980;2023-07-24T11:49:30;4.75;;;3.25;;
18822;SDS011;9540;51.550;7.980;2023-07-24T11:52:00;6.07;;;3.30;;
18822;SDS011;9540;51.550;7.980;2023-07-24T11:54:30;7.70;;;3.75;;
18822;SDS011;9540;51.550;7.980;2023-07-24T11:57:00;3.33;;;3.03;;
18822;SDS011;9540;51.550;7.980;2023-07-24T11:59:27;3.60;;;2.70;;
18822;SDS011;9540;51.550;7.980;2023-07-24T12:01:54;3.90;;;3.10;;
18822;SDS011;9540;51.550;7.980;2023-07-24T12:04:21;3.75;;;3.15;;
18822;SDS011;9540;51.550;7.980;2023-07-24T12:06:48;4.30;;;3.30;;
18822;SDS011;9540;51.550;7.980;2023-07-24T12:09:15;4.55;;;3.10;;
18822;SDS011;9540;51.550;7.980;2023-07-24T12:11:44;5.13;;;3.13;;
18822;SDS011;9540;51.550;7.980;2023-07-24T12:14:12;3.45;;;2.95;;
18822;SDS011;9540;51.550;7.980;2023-07-24T12:16:39;3.40;;;2.75;;
18822;SDS011;9540;51.550;7.980;2023-07-24T12:19:06;4.43;;;2.80;;
18822;SDS011;9540;51.550;7.980;2023-07-24T12:21:33;2.97;;;2.75;;
18822;SDS011;9540;51.550;7.980;2023-07-24T12:24:00;3.00;;;2.70;;
18822;SDS011;9540;51.550;7.980;2023-07-24T12:26:27;4.28;;;3.30;;
18822;SDS011;9540;51.550;7.980;2023-07-24T12:28:55;3.30;;;3.03;;
18822;SDS011;9540;51.550;7.980;2023-07-24T12:31:25;4.28;;;3.40;;
18822;SDS011;9540;51.550;7.980;2023-07-24T12:33:52;4.75;;;3.17;;
18822;SDS011;9540;51.550;7.980;2023-07-24T12:36:19;3.30;;;3.05;;
18822;SDS011;9540;51.550;7.980;2023-07-24T12:38:46;3.42;;;3.13;;
18822;SDS011;9540;51.550;7.980;2023-07-24T12:41:13;4.25;;;3.47;;
18822;SDS011;9540;51.550;7.980;2023-07-24T12:43:40;3.17;;;2.88;;
18822;SDS011;9540;51.550;7.980;2023-07-24T12:46:09;5.93;;;3.28;;
18822;SDS011;9540;51.550;7.980;2023-07-24T12:48:36;4.75;;;3.58;;
18822;SDS011;9540;51.550;7.980;2023-07-24T12:51:03;4.72;;;3.42;;
18822;SDS011;9540;51.550;7.980;2023-07-24T12:53:30;5.85;;;4.20;;
18822;SDS011;9540;51.550;7.980;2023-07-24T12:55:57;9.57;;;4.45;;
18822;SDS011;9540;51.550;7.980;2023-07-24T12:58:24;15.15;;;5.88;;
18822;SDS011;9540;51.550;7.980;2023-07-24T13:00:51;12.98;;;5.97;;
18822;SDS011;9540;51.550;7.980;2023-07-24T13:03:19;10.05;;;5.40;;
18822;SDS011;9540;51.550;7.980;2023-07-24T13:05:46;7.13;;;4.45;;
18822;SDS011;9540;51.550;7.980;2023-07-24T13:08:14;6.05;;;3.58;;
18822;SDS011;9540;51.550;7.980;2023-07-24T13:10:41;5.07;;;4.00;;
18822;SDS011;9540;51.550;7.980;2023-07-24T13:13:08;5.57;;;4.05;;
18822;SDS011;9540;51.550;7.980;2023-07-24T13:15:35;6.85;;;3.53;;
18822;SDS011;9540;51.550;7.980;2023-07-24T13:18:02;5.40;;;4.05;;
18822;SDS011;9540;51.550;7.980;2023-07-24T13:20:30;4.78;;;3.72;;
18822;SDS011;9540;51.550;7.980;2023-07-24T13:22:57;4.50;;;3.78;;
18822;SDS011;9540;51.550;7.980;2023-07-24T13:25:24;7.28;;;4.22;;
18822;SDS011;9540;51.550;7.980;2023-07-24T13:27:51;5.68;;;3.78;;
18822;SDS011;9540;51.550;7.980;2023-07-24T13:30:18;6.38;;;3.45;;
18822;SDS011;9540;51.550;7.980;2023-07-24T13:32:45;5.22;;;3.40;;
18822;SDS011;9540;51.550;7.980;2023-07-24T13:35:12;4.50;;;3.30;;
18822;SDS011;9540;51.550;7.980;2023-07-24T13:37:41;8.10;;;3.45;;
18822;SDS011;9540;51.550;7.980;2023-07-24T13:40:08;3.70;;;2.67;;
18822;SDS011;9540;51.550;7.980;2023-07-24T13:42:36;3.45;;;2.70;;
18822;SDS011;9540;51.550;7.980;2023-07-24T13:45:03;5.00;;;2.90;;
18822;SDS011;9540;51.550;7.980;2023-07-24T13:47:31;7.57;;;3.15;;
18822;SDS011;9540;51.550;7.980;2023-07-24T13:49:58;3.53;;;3.17;;
18822;SDS011;9540;51.550;7.980;2023-07-24T13:52:28;8.73;;;3.50;;
18822;SDS011;9540;51.550;7.980;2023-07-24T13:54:56;8.73;;;4.75;;
18822;SDS011;9540;51.550;7.980;2023-07-24T13:57:23;9.57;;;5.72;;
18822;SDS011;9540;51.550;7.980;2023-07-24T13:59:50;8.48;;;5.78;;
18822;SDS011;9540;51.550;7.980;2023-07-24T14:02:17;9.73;;;5.72;;
18822;SDS011;9540;51.550;7.980;2023-07-24T14:04:44;7.35;;;4.18;;
18822;SDS011;9540;51.550;7.980;2023-07-24T14:07:12;4.43;;;2.80;;
18822;SDS011;9540;51.550;7.980;2023-07-24T14:09:39;3.67;;;2.47;;
18822;SDS011;9540;51.550;7.980;2023-07-24T14:12:07;5.15;;;2.80;;
18822;SDS011;9540;51.550;7.980;2023-07-24T14:14:34;4.00;;;3.30;;
18822;SDS011;9540;51.550;7.980;2023-07-24T14:17:01;4.15;;;2.65;;
18822;SDS011;9540;51.550;7.980;2023-07-24T14:19:29;7.35;;;3.00;;
18822;SDS011;9540;51.550;7.980;2023-07-24T14:21:56;5.47;;;2.90;;
18822;SDS011;9540;51.550;7.980;2023-07-24T14:24:23;3.88;;;2.70;;
18822;SDS011;9540;51.550;7.980;2023-07-24T14:26:50;4.35;;;2.42;;
18822;SDS011;9540;51.550;7.980;2023-07-24T14:29:18;2.78;;;2.08;;
18822;SDS011;9540;51.550;7.980;2023-07-24T14:31:45;2.25;;;2.05;;
18822;SDS011;9540;51.550;7.980;2023-07-24T14:34:12;2.40;;;2.10;;
18822;SDS011;9540;51.550;7.980;2023-07-24T14:36:39;2.25;;;1.98;;
18822;SDS011;9540;51.550;7.980;2023-07-24T14:39:06;2.00;;;1.85;;
18822;SDS011;9540;51.550;7.980;2023-07-24T14:41:33;2.15;;;1.90;;
18822;SDS011;9540;51.550;7.980;2023-07-24T14:44:00;2.15;;;1.95;;
18822;SDS011;9540;51.550;7.980;2023-07-24T14:46:29;2.45;;;1.90;;
18822;SDS011;9540;51.550;7.980;2023-07-24T14:48:56;2.58;;;1.95;;
18822;SDS011;9540;51.550;7.980;2023-07-24T14:51:23;4.55;;;1.85;;
18822;SDS011;9540;51.550;7.980;2023-07-24T14:53:51;1.92;;;1.52;;
18822;SDS011;9540;51.550;7.980;2023-07-24T14:56:19;2.38;;;1.90;;
18822;SDS011;9540;51.550;7.980;2023-07-24T14:58:46;3.10;;;2.80;;
18822;SDS011;9540;51.550;7.980;2023-07-24T15:01:13;4.28;;;2.70;;
18822;SDS011;9540;51.550;7.980;2023-07-24T15:03:41;3.60;;;2.50;;
18822;SDS011;9540;51.550;7.980;2023-07-24T15:06:08;5.85;;;2.45;;